Time;durP1;ratioP1;P1;durP2;ratioP2;P2;SDS_P1;SDS_P2;PMS_P1;PMS_P2;Temp;Humidity;BMP_temperature;BMP_pressure;BME280_temperature;BME280_humidity;BME280_pressure;Samples;Min_cycle;Max_cycle;Signal;HPM_P1;HPM_P2
2022/07/13 00:00:18;;;;;;;1.87;1.77;;;18.50;66.00;;;;;;5211965;28;20205;-48
2022/07/13 00:02:49;;;;;;;1.93;1.80;;;18.50;67.10;;;;;;5205568;28;20462;-48
2022/07/13 00:05:19;;;;;;;2.33;2.20;;;18.50;69.00;;;;;;5215620;28;20601;-51
2022/07/13 00:07:50;;;;;;;1.83;1.27;;;18.50;70.50;;;;;;5207869;28;20190;-47
2022/07/13 00:10:21;;;;;;;1.60;1.50;;;18.40;71.10;;;;;;5226416;28;20187;-50
2022/07/13 00:12:51;;;;;;;1.60;1.50;;;18.40;73.00;;;;;;5207439;28;20184;-47
2022/07/13 00:15:22;;;;;;;1.40;1.40;;;18.30;74.00;;;;;;5221852;28;20175;-47
2022/07/13 00:17:52;;;;;;;2.00;1.87;;;18.20;74.80;;;;;;5209090;28;20245;-49
2022/07/13 00:20:23;;;;;;;1.57;1.47;;;18.20;76.90;;;;;;5212169;28;20282;-47
2022/07/13 00:22:54;;;;;;;1.80;1.70;;;18.20;78.80;;;;;;5207233;28;20204;-48
2022/07/13 00:25:25;;;;;;;1.83;1.63;;;18.20;79.90;;;;;;5218418;28;20179;-49
2022/07/13 00:27:56;;;;;;;5.60;2.03;;;18.20;81.30;;;;;;5209651;28;20424;-48
2022/07/13 00:30:26;;;;;;;2.23;1.33;;;18.20;80.70;;;;;;5214143;28;20243;-49
2022/07/13 00:32:57;;;;;;;1.20;1.20;;;18.30;80.10;;;;;;5204342;28;20195;-47
2022/07/13 00:35:28;;;;;;;3.53;1.70;;;18.40;80.00;;;;;;5211346;28;20206;-50
2022/07/13 00:37:58;;;;;;;2.50;2.30;;;18.40;81.70;;;;;;5209499;28;20605;-48
2022/07/13 00:40:29;;;;;;;2.00;1.90;;;18.40;82.40;;;;;;5209524;28;20190;-48
2022/07/13 00:42:59;;;;;;;2.00;1.90;;;18.50;82.70;;;;;;5201443;28;20329;-50
2022/07/13 00:45:30;;;;;;;2.60;1.60;;;18.50;83.00;;;;;;5193135;28;20259;-47
2022/07/13 00:48:01;;;;;;;2.77;2.20;;;18.60;83.60;;;;;;5203081;28;20324;-49
2022/07/13 00:50:32;;;;;;;3.70;1.43;;;18.60;83.00;;;;;;5212516;28;20840;-49
2022/07/13 00:53:02;;;;;;;1.83;1.47;;;18.70;84.10;;;;;;5191242;28;20326;-48
2022/07/13 00:55:33;;;;;;;1.70;1.60;;;18.70;82.90;;;;;;5207722;28;20188;-49
2022/07/13 00:58:04;;;;;;;3.03;1.30;;;18.80;81.60;;;;;;5197528;28;20180;-48
2022/07/13 01:00:36;;;;;;;3.03;1.57;;;18.80;80.60;;;;;;5214004;28;20199;-49
2022/07/13 01:03:07;;;;;;;1.90;1.47;;;18.80;80.20;;;;;;5201626;28;20232;-49
2022/07/13 01:05:38;;;;;;;2.57;1.30;;;18.90;80.40;;;;;;5190216;28;20437;-51
2022/07/13 01:08:08;;;;;;;1.40;1.30;;;18.90;81.20;;;;;;5214744;28;20195;-47
2022/07/13 01:10:42;;;;;;;1.57;1.50;;;18.80;81.20;;;;;;5215313;28;20187;-49
2022/07/13 01:13:16;;;;;;;1.80;1.70;;;18.80;81.30;;;;;;5206393;28;20176;-50
2022/07/13 01:15:46;;;;;;;2.43;2.23;;;18.80;82.10;;;;;;5210245;28;20514;-48
2022/07/13 01:18:17;;;;;;;3.27;1.90;;;18.80;82.40;;;;;;5224021;28;20449;-49
2022/07/13 01:20:48;;;;;;;2.00;1.90;;;18.80;82.60;;;;;;5200672;28;20198;-47
2022/07/13 01:23:19;;;;;;;1.60;1.50;;;18.90;83.10;;;;;;5215478;28;20221;-47
2022/07/13 01:25:50;;;;;;;2.10;1.50;;;18.90;82.30;;;;;;5191474;28;20226;-49
2022/07/13 01:28:20;;;;;;;3.07;1.63;;;18.90;81.30;;;;;;5197077;28;20211;-48
2022/07/13 01:30:51;;;;;;;1.80;1.00;;;19.00;80.90;;;;;;5206180;28;20190;-48
2022/07/13 01:33:22;;;;;;;5.37;1.50;;;19.00;80.40;;;;;;5199637;28;20187;-49
2022/07/13 01:35:52;;;;;;;1.17;1.07;;;19.10;80.40;;;;;;5205537;28;20218;-47
2022/07/13 01:38:23;;;;;;;2.40;1.70;;;19.10;80.00;;;;;;5206112;28;20246;-47
2022/07/13 01:40:54;;;;;;;1.17;1.17;;;19.10;79.80;;;;;;5200302;28;20183;-48
2022/07/13 01:43:29;;;;;;;1.40;1.27;;;19.10;79.70;;;;;;5186764;28;20525;-50
2022/07/13 01:46:00;;;;;;;1.60;1.60;;;19.10;79.50;;;;;;5205023;28;20218;-48
2022/07/13 01:48:31;;;;;;;1.70;1.60;;;19.10;79.70;;;;;;5192617;28;20795;-47
2022/07/13 01:51:01;;;;;;;4.20;1.90;;;19.10;79.60;;;;;;5196922;28;20302;-49
2022/07/13 01:53:32;;;;;;;1.67;1.60;;;19.10;79.70;;;;;;5213709;28;20843;-48
2022/07/13 01:56:03;;;;;;;3.27;1.73;;;19.10;80.00;;;;;;5196974;28;20199;-48
2022/07/13 01:58:33;;;;;;;1.30;1.30;;;19.10;80.10;;;;;;5196256;28;20190;-49
2022/07/13 02:01:04;;;;;;;1.60;1.50;;;19.10;80.40;;;;;;5206504;28;20191;-52
2022/07/13 02:03:35;;;;;;;1.50;1.40;;;19.10;80.80;;;;;;5195470;28;20278;-48
2022/07/13 02:06:06;;;;;;;1.30;1.30;;;19.00;81.10;;;;;;5205967;28;20203;-48
2022/07/13 02:08:36;;;;;;;1.70;1.60;;;19.00;81.60;;;;;;5175633;28;20184;-48
2022/07/13 02:11:07;;;;;;;2.10;1.30;;;19.00;82.00;;;;;;5195749;28;20191;-49
2022/07/13 02:13:37;;;;;;;1.50;1.40;;;19.10;82.60;;;;;;5200548;28;20197;-48
2022/07/13 02:16:08;;;;;;;1.30;1.30;;;19.00;82.90;;;;;;5213387;28;20227;-48
2022/07/13 02:18:39;;;;;;;2.80;1.80;;;18.90;83.40;;;;;;5214868;28;20269;-49
2022/07/13 02:21:11;;;;;;;1.37;1.37;;;18.90;84.10;;;;;;5206536;28;20260;-49
2022/07/13 02:23:41;;;;;;;2.77;1.73;;;18.90;84.80;;;;;;5214607;28;20306;-48
2022/07/13 02:26:12;;;;;;;2.30;1.73;;;18.90;85.40;;;;;;5205421;28;20500;-49
2022/07/13 02:28:42;;;;;;;1.77;1.67;;;18.90;85.50;;;;;;5209284;28;20175;-52
2022/07/13 02:31:13;;;;;;;1.40;1.40;;;18.90;85.90;;;;;;5216638;28;20622;-49
2022/07/13 02:33:44;;;;;;;1.60;1.50;;;19.00;86.20;;;;;;5208441;28;20187;-47
2022/07/13 02:36:14;;;;;;;2.20;1.10;;;19.00;86.30;;;;;;5211284;28;20215;-49
2022/07/13 02:38:45;;;;;;;1.90;1.80;;;19.00;86.50;;;;;;5187573;28;20195;-49
2022/07/13 02:41:15;;;;;;;1.50;1.43;;;19.00;86.80;;;;;;5192093;28;20191;-48
2022/07/13 02:43:46;;;;;;;1.60;1.50;;;18.90;87.20;;;;;;5195689;28;20267;-51
2022/07/13 02:46:16;;;;;;;1.90;1.80;;;19.00;87.80;;;;;;5214600;28;20226;-49
2022/07/13 02:48:47;;;;;;;1.80;1.70;;;18.90;88.20;;;;;;5217649;28;20191;-48
2022/07/13 02:51:17;;;;;;;1.00;1.00;;;18.90;88.80;;;;;;5204098;28;20219;-49
2022/07/13 02:53:48;;;;;;;1.20;1.20;;;18.90;89.10;;;;;;5186094;28;20214;-51
2022/07/13 02:56:19;;;;;;;1.37;1.37;;;18.80;89.50;;;;;;5212854;28;20223;-48
2022/07/13 02:58:49;;;;;;;1.27;1.27;;;18.90;90.00;;;;;;5191161;28;20183;-49
2022/07/13 03:01:20;;;;;;;1.67;1.57;;;18.80;90.20;;;;;;5208531;28;20251;-46
2022/07/13 03:03:50;;;;;;;2.93;1.93;;;18.80;90.50;;;;;;5208773;28;20207;-48
2022/07/13 03:06:21;;;;;;;1.57;1.57;;;18.80;91.00;;;;;;5199583;28;20200;-48
2022/07/13 03:08:51;;;;;;;1.83;1.50;;;18.80;90.90;;;;;;5220510;28;20186;-49
2022/07/13 03:11:22;;;;;;;2.20;1.30;;;18.80;91.40;;;;;;5223759;28;20267;-49
2022/07/13 03:13:52;;;;;;;1.83;1.83;;;18.90;91.70;;;;;;5210709;28;20191;-48
2022/07/13 03:16:23;;;;;;;1.40;1.40;;;18.90;91.90;;;;;;5199486;28;20200;-48
2022/07/13 03:18:54;;;;;;;3.90;1.60;;;18.90;92.20;;;;;;5219327;28;20191;-48
2022/07/13 03:21:24;;;;;;;1.43;1.43;;;18.90;92.60;;;;;;5200468;28;20183;-49
2022/07/13 03:23:55;;;;;;;3.73;1.20;;;18.70;92.80;;;;;;5218075;28;20297;-49
2022/07/13 03:26:26;;;;;;;1.37;1.37;;;18.90;93.00;;;;;;5200236;28;20295;-48
2022/07/13 03:28:57;;;;;;;1.97;1.87;;;18.90;93.30;;;;;;5215393;28;20949;-48
2022/07/13 03:31:27;;;;;;;1.20;1.20;;;18.90;93.60;;;;;;5219455;28;20476;-49
2022/07/13 03:33:58;;;;;;;1.27;1.27;;;18.90;93.70;;;;;;5201688;28;20176;-49
2022/07/13 03:36:30;;;;;;;1.23;1.13;;;18.90;94.00;;;;;;5237423;22;20236;-47
2022/07/13 03:39:01;;;;;;;1.33;1.23;;;18.90;94.50;;;;;;5217193;28;20190;-48
2022/07/13 03:41:32;;;;;;;1.83;1.73;;;18.90;94.60;;;;;;5222560;28;20441;-48
2022/07/13 03:44:03;;;;;;;1.53;1.20;;;18.90;94.80;;;;;;5209239;28;20211;-48
2022/07/13 03:46:33;;;;;;;1.70;1.60;;;18.90;95.00;;;;;;5221902;28;20282;-47
2022/07/13 03:49:04;;;;;;;1.73;1.40;;;19.00;95.30;;;;;;5211352;28;20799;-47
2022/07/13 03:51:38;;;;;;;1.33;1.33;;;19.00;95.50;;;;;;5189509;28;20183;-47
2022/07/13 03:54:08;;;;;;;1.30;1.20;;;19.00;95.80;;;;;;5207315;28;20191;-47
2022/07/13 03:56:39;;;;;;;1.90;1.20;;;19.00;96.00;;;;;;5195573;28;20969;-48
2022/07/13 03:59:10;;;;;;;1.70;1.60;;;19.00;96.00;;;;;;5202787;28;20242;-49
2022/07/13 04:01:40;;;;;;;1.57;1.47;;;19.10;96.30;;;;;;5205406;28;20182;-47
2022/07/13 04:04:11;;;;;;;2.03;1.30;;;19.10;96.40;;;;;;5202008;28;20342;-48
2022/07/13 04:06:41;;;;;;;1.63;1.53;;;19.20;96.40;;;;;;5193551;28;20278;-47
2022/07/13 04:09:12;;;;;;;1.83;1.53;;;19.20;96.60;;;;;;5215591;28;20180;-47
2022/07/13 04:11:43;;;;;;;1.13;1.13;;;19.20;96.70;;;;;;5210127;28;20176;-47
2022/07/13 04:14:13;;;;;;;1.63;1.50;;;19.20;96.80;;;;;;5215403;28;20175;-47
2022/07/13 04:16:44;;;;;;;1.50;1.50;;;19.20;96.80;;;;;;5186636;28;20199;-47
2022/07/13 04:19:14;;;;;;;1.43;1.43;;;19.30;96.90;;;;;;5195470;28;20179;-48
2022/07/13 04:21:45;;;;;;;1.57;1.47;;;19.30;96.90;;;;;;5216946;28;20179;-47
2022/07/13 04:24:15;;;;;;;1.50;1.50;;;19.30;97.00;;;;;;5208710;28;20215;-48
2022/07/13 04:26:46;;;;;;;2.30;1.13;;;19.40;97.10;;;;;;5194491;28;20682;-47
2022/07/13 04:29:17;;;;;;;1.70;1.60;;;19.40;97.20;;;;;;5204267;28;20647;-48
2022/07/13 04:31:47;;;;;;;1.50;1.40;;;19.40;97.10;;;;;;5217017;28;20276;-48
2022/07/13 04:34:18;;;;;;;2.63;1.20;;;19.50;97.20;;;;;;5210945;28;20674;-49
2022/07/13 04:36:48;;;;;;;1.20;1.20;;;19.50;97.10;;;;;;5210536;28;20214;-49
2022/07/13 04:39:19;;;;;;;1.63;1.63;;;19.60;97.00;;;;;;5212221;28;20190;-47
2022/07/13 04:41:50;;;;;;;1.20;1.20;;;19.70;96.90;;;;;;5194916;28;20263;-46
2022/07/13 04:44:20;;;;;;;2.93;1.57;;;19.70;96.80;;;;;;5212241;28;20503;-46
2022/07/13 04:46:51;;;;;;;3.13;1.93;;;19.80;96.70;;;;;;5216963;28;20203;-47
2022/07/13 04:49:22;;;;;;;1.57;1.57;;;19.90;96.50;;;;;;5217317;28;20183;-46
2022/07/13 04:51:52;;;;;;;1.20;1.20;;;19.90;96.10;;;;;;5217131;28;20241;-48
2022/07/13 04:54:23;;;;;;;1.60;1.50;;;20.00;95.90;;;;;;5206569;28;20262;-46
2022/07/13 04:56:53;;;;;;;1.43;1.20;;;20.10;95.80;;;;;;5198810;28;20257;-48
2022/07/13 04:59:24;;;;;;;1.27;1.27;;;20.20;95.80;;;;;;5198670;28;20833;-48
2022/07/13 05:01:55;;;;;;;4.13;2.07;;;20.30;95.60;;;;;;5198816;28;20302;-49
2022/07/13 05:04:25;;;;;;;1.30;1.30;;;20.40;95.30;;;;;;5202583;28;20179;-46
2022/07/13 05:06:56;;;;;;;0.80;0.80;;;20.50;95.00;;;;;;5213823;28;20202;-46
2022/07/13 05:09:26;;;;;;;1.50;1.40;;;20.60;94.90;;;;;;5207194;28;20179;-46
2022/07/13 05:11:57;;;;;;;1.80;1.47;;;20.60;94.70;;;;;;5198332;28;20746;-46
2022/07/13 05:14:28;;;;;;;1.50;1.50;;;20.70;94.50;;;;;;5211750;28;20183;-47
2022/07/13 05:16:58;;;;;;;1.63;1.53;;;20.80;94.40;;;;;;5192079;28;20234;-47
2022/07/13 05:19:29;;;;;;;1.60;1.60;;;21.00;93.80;;;;;;5195355;28;20190;-48
2022/07/13 05:21:59;;;;;;;2.40;1.20;;;21.20;93.30;;;;;;5217625;28;20293;-48
2022/07/13 05:24:30;;;;;;;1.90;1.80;;;21.30;92.80;;;;;;5198075;28;20183;-46
2022/07/13 05:27:00;;;;;;;2.40;2.30;;;21.40;92.20;;;;;;5217401;28;20667;-48
2022/07/13 05:29:31;;;;;;;1.87;1.77;;;21.60;92.10;;;;;;5219562;28;20312;-48
2022/07/13 05:32:03;;;;;;;1.90;1.80;;;21.70;91.30;;;;;;5222017;28;20245;-47
2022/07/13 05:34:33;;;;;;;2.40;1.57;;;21.80;90.90;;;;;;5214795;28;20213;-47
2022/07/13 05:37:04;;;;;;;8.23;2.10;;;21.90;90.50;;;;;;5204743;28;20468;-48
2022/07/13 05:39:35;;;;;;;2.40;1.60;;;21.80;90.40;;;;;;5218077;28;20187;-47
2022/07/13 05:42:05;;;;;;;1.20;1.13;;;21.80;90.40;;;;;;5216722;28;20261;-48
2022/07/13 05:44:36;;;;;;;1.90;1.27;;;21.80;90.40;;;;;;5217476;28;20254;-48
2022/07/13 05:47:07;;;;;;;1.50;1.40;;;21.70;90.40;;;;;;5205609;28;20553;-47
2022/07/13 05:49:37;;;;;;;3.13;1.40;;;21.70;90.30;;;;;;5203018;28;20194;-48
2022/07/13 05:52:08;;;;;;;1.93;1.63;;;21.60;90.40;;;;;;5214037;28;20202;-47
2022/07/13 05:54:38;;;;;;;14.00;1.50;;;21.60;90.60;;;;;;5194174;28;20528;-48
2022/07/13 05:57:09;;;;;;;1.83;1.50;;;21.60;90.70;;;;;;5212232;28;20255;-48
2022/07/13 05:59:40;;;;;;;3.27;2.00;;;21.60;90.80;;;;;;5220583;28;20211;-47
2022/07/13 06:02:10;;;;;;;2.50;1.50;;;21.60;90.90;;;;;;5197038;28;20203;-48
2022/07/13 06:04:41;;;;;;;2.10;1.57;;;21.60;90.70;;;;;;5215391;28;20541;-48
2022/07/13 06:07:12;;;;;;;1.57;1.47;;;21.70;90.30;;;;;;5218137;28;20272;-47
2022/07/13 06:09:43;;;;;;;1.50;1.40;;;21.70;90.00;;;;;;5214313;28;20190;-47
2022/07/13 06:12:14;;;;;;;1.97;1.47;;;21.90;90.00;;;;;;5218185;28;20288;-47
2022/07/13 06:14:44;;;;;;;1.90;1.80;;;22.10;88.60;;;;;;5194669;28;20661;-46
2022/07/13 06:17:15;;;;;;;4.93;1.77;;;22.30;87.60;;;;;;5223187;28;20213;-47
2022/07/13 06:19:45;;;;;;;1.00;1.00;;;22.40;86.40;;;;;;5205020;28;20279;-48
2022/07/13 06:22:17;;;;;;;1.67;1.57;;;22.50;85.30;;;;;;5213141;28;20222;-46
2022/07/13 06:24:47;;;;;;;20.57;1.67;;;22.60;84.60;;;;;;5195640;28;20187;-48
2022/07/13 06:27:18;;;;;;;7.20;1.70;;;22.90;84.20;;;;;;5213201;28;20462;-47
2022/07/13 06:29:49;;;;;;;1.53;1.53;;;23.30;82.30;;;;;;5197375;28;20179;-45
2022/07/13 06:32:19;;;;;;;3.83;2.00;;;23.60;80.20;;;;;;5215182;28;20194;-45
2022/07/13 06:34:50;;;;;;;0.90;0.90;;;23.70;78.40;;;;;;5195883;28;20180;-48
2022/07/13 06:37:20;;;;;;;7.93;1.47;;;23.80;77.90;;;;;;5195004;28;20211;-46
2022/07/13 06:39:51;;;;;;;1.00;0.90;;;23.80;76.60;;;;;;5216335;28;20186;-47
2022/07/13 06:42:21;;;;;;;3.47;1.60;;;24.00;75.60;;;;;;5216134;28;20206;-47
2022/07/13 06:44:52;;;;;;;1.50;1.40;;;24.10;74.90;;;;;;5185010;28;20182;-46
2022/07/13 06:47:22;;;;;;;1.20;1.20;;;24.10;73.60;;;;;;5196477;28;20204;-47
2022/07/13 06:49:53;;;;;;;1.30;1.30;;;24.40;72.60;;;;;;5202573;28;20211;-46
2022/07/13 06:52:24;;;;;;;3.57;1.53;;;24.80;71.60;;;;;;5187416;28;20188;-47
2022/07/13 06:54:54;;;;;;;3.90;1.47;;;25.20;69.20;;;;;;5207894;28;20582;-47
2022/07/13 06:57:25;;;;;;;2.10;0.90;;;25.50;67.40;;;;;;5194804;28;20198;-47
2022/07/13 06:59:55;;;;;;;1.50;1.50;;;25.80;66.40;;;;;;5194247;28;20176;-47
2022/07/13 07:02:26;;;;;;;4.40;1.70;;;26.10;65.50;;;;;;5219433;28;20213;-46
2022/07/13 07:04:57;;;;;;;1.80;1.67;;;26.20;64.00;;;;;;5202989;28;20202;-48
2022/07/13 07:07:27;;;;;;;2.20;2.10;;;26.30;63.00;;;;;;5201123;28;20199;-48
2022/07/13 07:09:58;;;;;;;1.57;1.50;;;26.50;62.10;;;;;;5210837;28;20190;-47
2022/07/13 07:12:28;;;;;;;8.10;1.30;;;26.60;61.20;;;;;;5212471;28;20198;-47
2022/07/13 07:14:59;;;;;;;11.73;1.50;;;26.70;60.50;;;;;;5199773;28;20183;-47
2022/07/13 07:17:30;;;;;;;3.03;1.73;;;26.80;59.10;;;;;;5218705;28;20206;-46
2022/07/13 07:20:03;;;;;;;1.27;1.20;;;26.90;57.90;;;;;;5202105;28;20202;-47
2022/07/13 07:22:34;;;;;;;1.17;1.00;;;27.20;57.90;;;;;;5217053;28;20726;-48
2022/07/13 07:25:07;;;;;;;1.00;0.97;;;27.40;56.80;;;;;;5198550;28;20535;-48
2022/07/13 07:27:40;;;;;;;0.80;0.80;;;27.30;56.00;;;;;;5214785;28;20207;-48
2022/07/13 07:30:11;;;;;;;1.67;1.30;;;27.40;55.60;;;;;;5200636;28;20456;-49
2022/07/13 07:32:42;;;;;;;2.83;1.53;;;27.70;54.80;;;;;;5219571;28;20437;-47
2022/07/13 07:35:12;;;;;;;4.30;1.73;;;28.10;54.40;;;;;;5223931;28;20489;-46
2022/07/13 07:37:43;;;;;;;4.30;1.40;;;28.30;53.10;;;;;;5214943;28;20211;-47
2022/07/13 07:40:14;;;;;;;1.73;1.63;;;28.50;52.90;;;;;;5218177;28;20655;-46
2022/07/13 07:42:44;;;;;;;5.80;2.20;;;28.30;52.60;;;;;;5223829;28;20210;-47
2022/07/13 07:45:15;;;;;;;2.23;2.13;;;28.30;52.50;;;;;;5214986;28;20187;-48
2022/07/13 07:47:46;;;;;;;1.53;1.43;;;28.50;51.80;;;;;;5214137;28;20638;-47
2022/07/13 07:50:17;;;;;;;2.30;2.10;;;28.80;50.30;;;;;;5218005;28;20202;-48
2022/07/13 07:52:48;;;;;;;1.50;1.47;;;29.20;49.90;;;;;;5217370;28;20444;-46
2022/07/13 07:55:19;;;;;;;1.00;1.00;;;29.40;48.80;;;;;;5222114;28;20216;-47
2022/07/13 07:57:50;;;;;;;1.30;1.20;;;29.80;48.30;;;;;;5220413;28;20554;-48
2022/07/13 08:00:21;;;;;;;1.90;1.00;;;30.10;47.70;;;;;;5200394;28;20339;-47
2022/07/13 08:02:52;;;;;;;1.90;0.90;;;30.10;46.40;;;;;;5213128;28;20786;-47
2022/07/13 08:05:23;;;;;;;1.53;1.43;;;29.90;46.30;;;;;;5213739;28;20434;-47
2022/07/13 08:07:53;;;;;;;1.50;1.40;;;29.80;46.00;;;;;;5210112;28;20210;-50
2022/07/13 08:10:24;;;;;;;1.63;1.30;;;30.30;45.80;;;;;;5193248;28;20187;-47
2022/07/13 08:12:56;;;;;;;1.00;1.00;;;30.70;44.70;;;;;;5210073;28;20638;-49
2022/07/13 08:15:28;;;;;;;2.77;0.90;;;30.60;44.10;;;;;;5220359;28;20529;-50
2022/07/13 08:17:58;;;;;;;1.07;1.07;;;30.40;44.40;;;;;;5217214;28;20509;-49
2022/07/13 08:20:29;;;;;;;1.37;1.23;;;30.00;44.30;;;;;;5200824;28;20438;-50
2022/07/13 08:23:00;;;;;;;1.37;1.27;;;29.60;44.50;;;;;;5202744;28;20686;-47
2022/07/13 08:25:30;;;;;;;1.30;1.30;;;29.30;45.40;;;;;;5214223;28;20722;-53
2022/07/13 08:28:01;;;;;;;1.20;1.10;;;29.10;45.90;;;;;;5219722;28;20202;-48
2022/07/13 08:30:36;;;;;;;0.73;0.73;;;28.90;45.80;;;;;;5207024;28;20170;-47
2022/07/13 08:33:06;;;;;;;1.00;1.00;;;28.90;45.80;;;;;;5216175;28;20175;-52
2022/07/13 08:38:35;;;;;;;1.50;1.20;;;29.90;44.20;;;;;;5217079;28;20202;-47
2022/07/13 08:41:05;;;;;;;1.03;1.03;;;30.40;44.30;;;;;;5199948;28;20475;-49
2022/07/13 08:43:36;;;;;;;1.40;1.30;;;30.50;43.60;;;;;;5208380;28;21069;-49
2022/07/13 08:46:08;;;;;;;1.30;1.20;;;31.10;43.00;;;;;;5197391;28;20185;-47
2022/07/13 08:48:40;;;;;;;0.90;0.90;;;32.80;41.00;;;;;;5189754;28;20190;-48
2022/07/13 08:51:11;;;;;;;1.53;1.10;;;33.50;39.60;;;;;;5210068;28;20631;-48
2022/07/13 08:53:42;;;;;;;1.43;1.33;;;33.80;38.90;;;;;;5212857;28;20241;-48
2022/07/13 08:56:13;;;;;;;1.00;1.00;;;33.90;37.60;;;;;;5210251;28;20190;-48
2022/07/13 08:58:44;;;;;;;4.30;1.85;;;33.80;37.90;;;;;;5198914;28;20198;-47
2022/07/13 09:01:14;;;;;;;1.70;1.43;;;33.60;37.80;;;;;;5199953;28;20202;-48
2022/07/13 09:03:46;;;;;;;1.20;1.20;;;33.10;38.70;;;;;;5208231;28;20272;-47
2022/07/13 09:06:38;;;;;;;2.07;1.97;;;33.20;39.10;;;;;;5208640;28;20667;-49
2022/07/13 09:09:31;;;;;;;4.53;0.97;;;33.20;38.80;;;;;;5209465;28;20638;-49
2022/07/13 09:12:12;;;;;;;1.63;1.53;;;33.10;37.80;;;;;;5204784;28;20646;-46
2022/07/13 09:14:52;;;;;;;1.17;1.17;;;33.00;38.40;;;;;;5206902;28;20658;-48
2022/07/13 09:17:36;;;;;;;1.27;1.27;;;32.70;38.20;;;;;;5205984;28;20197;-50
2022/07/13 09:20:10;;;;;;;1.00;1.00;;;32.40;38.80;;;;;;5219356;28;20201;-49
2022/07/13 09:22:53;;;;;;;0.80;0.80;;;32.50;39.30;;;;;;5196824;28;20606;-50
2022/07/13 09:25:33;;;;;;;1.50;1.40;;;32.60;39.10;;;;;;5197027;28;20183;-47
2022/07/13 09:28:06;;;;;;;11.50;1.60;;;32.50;38.20;;;;;;5195862;28;20190;-50
2022/07/13 09:30:40;;;;;;;1.00;1.00;;;31.80;39.20;;;;;;5211887;28;20175;-48
2022/07/13 09:33:11;;;;;;;1.43;1.43;;;32.00;39.60;;;;;;5196955;28;20335;-50
2022/07/13 09:35:51;;;;;;;1.50;1.50;;;32.00;39.50;;;;;;5205445;28;20648;-49
2022/07/13 09:38:36;;;;;;;1.00;1.00;;;31.90;39.40;;;;;;5216984;28;20221;-47
2022/07/13 09:41:24;;;;;;;1.90;1.00;;;31.40;39.40;;;;;;5200067;28;20192;-48
2022/07/13 09:46:55;;;;;;;4.20;1.43;;;31.10;40.50;;;;;;5209964;28;20218;-46
2022/07/13 09:49:45;;;;;;;2.00;1.90;;;31.40;40.60;;;;;;5194632;28;20186;-47
2022/07/13 09:52:16;;;;;;;4.83;1.40;;;31.40;40.50;;;;;;5215261;28;20189;-47
2022/07/13 09:54:51;;;;;;;2.03;1.93;;;31.40;40.30;;;;;;5213656;28;20179;-46
2022/07/13 09:57:22;;;;;;;1.57;1.47;;;31.30;40.20;;;;;;5206011;28;20696;-45
2022/07/13 09:59:54;;;;;;;4.50;3.37;;;31.40;40.20;;;;;;5209246;28;20186;-47
2022/07/13 10:02:26;;;;;;;8.40;3.60;;;31.40;40.30;;;;;;5213871;28;20558;-46
2022/07/13 10:04:57;;;;;;;1.73;1.63;;;31.10;39.80;;;;;;5196421;28;20186;-47
2022/07/13 10:07:30;;;;;;;9.43;1.73;;;30.70;40.80;;;;;;5215457;28;20449;-47
2022/07/13 10:10:04;;;;;;;1.37;1.37;;;30.90;41.30;;;;;;5208493;28;20746;-47
2022/07/13 10:12:37;;;;;;;1.47;1.37;;;30.80;41.30;;;;;;5210384;28;20534;-48
2022/07/13 10:15:09;;;;;;;1.17;1.17;;;30.70;41.30;;;;;;5204334;28;20201;-49
2022/07/13 10:17:47;;;;;;;1.83;1.73;;;30.90;41.80;;;;;;5217838;28;20210;-48
2022/07/13 10:20:21;;;;;;;1.50;1.40;;;31.10;41.10;;;;;;5207185;28;20817;-47
2022/07/13 10:22:52;;;;;;;1.30;1.30;;;31.20;40.50;;;;;;5211210;28;20313;-46
2022/07/13 10:25:40;;;;;;;1.43;1.10;;;31.00;39.90;;;;;;5219042;28;20181;-46
2022/07/13 10:28:12;;;;;;;4.00;1.03;;;30.70;40.70;;;;;;5212432;28;20475;-46
2022/07/13 10:30:43;;;;;;;0.97;0.97;;;30.70;40.80;;;;;;5202368;28;20299;-45
2022/07/13 10:33:21;;;;;;;1.23;1.17;;;30.40;41.00;;;;;;5220968;28;20191;-45
2022/07/13 10:35:57;;;;;;;1.47;1.37;;;30.60;41.20;;;;;;5200618;28;20186;-46
2022/07/13 10:38:28;;;;;;;3.40;1.40;;;31.10;41.00;;;;;;5212563;28;20448;-47
2022/07/13 10:41:21;;;;;;;1.50;1.40;;;31.00;39.30;;;;;;5199737;28;20182;-48
2022/07/13 10:44:03;;;;;;;1.70;1.40;;;31.10;39.70;;;;;;5191877;28;20206;-46
2022/07/13 10:46:49;;;;;;;1.50;1.40;;;31.10;39.80;;;;;;5198181;28;20269;-45
2022/07/13 10:49:33;;;;;;;2.53;2.43;;;31.60;38.50;;;;;;5202298;28;21014;-46
2022/07/13 10:52:26;;;;;;;1.60;1.50;;;31.80;37.90;;;;;;5212211;28;20174;-47
2022/07/13 10:55:03;;;;;;;3.47;2.20;;;31.60;37.50;;;;;;5196294;28;20206;-48
2022/07/13 10:57:36;;;;;;;4.20;1.80;;;31.40;37.40;;;;;;5206037;28;20312;-46
2022/07/13 11:03:02;;;;;;;2.70;1.53;;;30.80;37.40;;;;;;5214570;28;20209;-48
2022/07/13 11:05:35;;;;;;;3.23;1.77;;;30.50;37.90;;;;;;5212268;28;21490;-47
2022/07/13 11:08:16;;;;;;;8.10;5.17;;;30.60;38.30;;;;;;5214034;28;20471;-47
2022/07/13 11:11:28;;;;;;;1.27;1.27;;;30.70;37.00;;;;;;5196097;28;20449;-46
2022/07/13 11:13:59;;;;;;;1.43;1.20;;;30.70;35.90;;;;;;5205912;28;20520;-46
2022/07/13 11:16:48;;;;;;;1.60;1.50;;;30.60;36.30;;;;;;5197642;28;20457;-47
2022/07/13 11:19:48;;;;;;;2.70;1.37;;;30.40;36.80;;;;;;5182204;28;20190;-47
2022/07/13 11:22:20;;;;;;;1.50;1.40;;;30.10;37.50;;;;;;5215218;28;20464;-46
2022/07/13 11:25:30;;;;;;;5.07;3.70;;;29.90;38.40;;;;;;5213369;28;20444;-46
2022/07/13 11:28:28;;;;;;;5.20;3.97;;;29.80;39.30;;;;;;5214637;28;20460;-46
2022/07/13 11:31:03;;;;;;;4.00;3.63;;;29.90;39.80;;;;;;5209284;28;20453;-48
2022/07/13 11:33:33;;;;;;;2.13;2.03;;;30.10;39.60;;;;;;5200468;28;21102;-47
2022/07/13 11:36:06;;;;;;;3.67;3.30;;;30.40;39.30;;;;;;5218237;28;20497;-47
2022/07/13 11:38:38;;;;;;;5.77;2.00;;;30.40;39.10;;;;;;5204285;28;20225;-47
2022/07/13 11:41:21;;;;;;;3.83;3.53;;;30.40;39.10;;;;;;5215753;28;21033;-49
2022/07/13 11:43:53;;;;;;;2.77;2.60;;;30.30;39.10;;;;;;5210724;28;20780;-47
2022/07/13 11:46:28;;;;;;;2.00;1.90;;;30.10;39.20;;;;;;5204201;28;20488;-51
2022/07/13 11:49:04;;;;;;;2.00;1.90;;;30.00;39.60;;;;;;5201361;28;20577;-47
2022/07/13 11:51:35;;;;;;;4.17;3.80;;;30.10;39.60;;;;;;5196765;28;20968;-48
2022/07/13 11:54:12;;;;;;;1.70;1.60;;;30.10;39.50;;;;;;5213441;28;20453;-51
2022/07/13 11:56:47;;;;;;;1.87;1.70;;;29.90;39.70;;;;;;5201908;28;20538;-50
2022/07/13 11:59:42;;;;;;;1.10;1.10;;;29.70;40.20;;;;;;5203634;28;20840;-49
2022/07/13 12:02:14;;;;;;;1.57;1.40;;;29.70;40.70;;;;;;5215450;28;20581;-50
2022/07/13 12:04:46;;;;;;;7.13;3.23;;;29.90;41.00;;;;;;5198382;28;20433;-49
2022/07/13 12:07:25;;;;;;;2.73;1.60;;;30.10;40.40;;;;;;5216718;28;20539;-49
2022/07/13 12:10:00;;;;;;;2.63;1.40;;;30.10;40.50;;;;;;5222315;28;20992;-49
2022/07/13 12:12:36;;;;;;;2.77;2.60;;;30.10;40.20;;;;;;5213226;28;24124;-46
2022/07/13 12:15:09;;;;;;;15.97;8.50;;;30.00;40.40;;;;;;5216517;28;20490;-50
2022/07/13 12:17:52;;;;;;;10.93;8.70;;;30.00;39.90;;;;;;5204251;28;20488;-51
2022/07/13 12:20:23;;;;;;;2.30;2.17;;;29.80;39.90;;;;;;5204035;28;21107;-49
2022/07/13 12:22:56;;;;;;;2.27;2.07;;;29.80;40.40;;;;;;5194432;28;20454;-50
2022/07/13 12:25:32;;;;;;;4.43;2.20;;;29.90;40.70;;;;;;5222154;28;20882;-49
2022/07/13 12:28:05;;;;;;;1.73;1.63;;;30.20;40.40;;;;;;5223018;28;20451;-49
2022/07/13 12:30:53;;;;;;;3.70;1.50;;;30.60;40.40;;;;;;5202235;28;20468;-47
2022/07/13 12:33:24;;;;;;;1.33;1.27;;;30.60;40.00;;;;;;5219671;28;20909;-58
2022/07/13 12:36:03;;;;;;;1.00;1.00;;;30.80;39.10;;;;;;5200984;28;20440;-50
2022/07/13 12:38:34;;;;;;;2.53;2.33;;;30.90;38.70;;;;;;5213478;28;20349;-48
2022/07/13 12:41:05;;;;;;;2.73;1.57;;;31.00;38.30;;;;;;5214656;28;20207;-49
2022/07/13 12:43:36;;;;;;;1.80;1.70;;;30.90;39.00;;;;;;5214905;28;20329;-52
2022/07/13 12:46:07;;;;;;;1.80;1.70;;;30.80;38.20;;;;;;5215359;28;20266;-49
2022/07/13 12:48:37;;;;;;;1.67;1.57;;;30.80;39.00;;;;;;5212695;28;20700;-49
2022/07/13 12:51:13;;;;;;;3.63;1.70;;;30.90;38.20;;;;;;5192944;28;20710;-47
2022/07/13 12:53:59;;;;;;;1.37;1.27;;;30.80;38.50;;;;;;5208355;28;20558;-49
2022/07/13 12:56:49;;;;;;;3.27;1.80;;;30.40;36.80;;;;;;5210925;28;20457;-46
2022/07/13 12:59:21;;;;;;;1.50;1.40;;;30.40;36.70;;;;;;5214684;28;20445;-48
2022/07/13 13:01:52;;;;;;;1.43;1.33;;;30.30;37.10;;;;;;5224048;28;20194;-46
2022/07/13 13:04:23;;;;;;;1.47;1.43;;;30.50;35.60;;;;;;5221656;28;20607;-51
2022/07/13 13:06:53;;;;;;;1.60;1.50;;;30.40;33.90;;;;;;5194085;28;20213;-46
2022/07/13 13:09:24;;;;;;;1.67;1.30;;;30.60;34.10;;;;;;5218965;28;20190;-48
2022/07/13 13:11:54;;;;;;;2.30;1.00;;;30.50;32.70;;;;;;5208092;28;20195;-46
2022/07/13 13:14:25;;;;;;;1.13;1.13;;;30.60;32.60;;;;;;5189228;28;20189;-46
2022/07/13 13:16:55;;;;;;;0.90;0.90;;;30.70;31.90;;;;;;5194382;28;20203;-47
2022/07/13 13:19:26;;;;;;;1.57;1.20;;;30.90;32.10;;;;;;5213705;28;20186;-45
2022/07/13 13:21:57;;;;;;;2.63;1.57;;;31.10;31.80;;;;;;5196012;28;20190;-46